Flight Track Log - Related Links

Times and Time Zones

All times are in EDT time to prevent confusion due to time zone crossing. See the N88KJ flight status page for this flight to view local times or setup timezone preferences in your user account.

Time Position Orientation Groundspeed Altitude Reporting Facility
EDT Latitude Longitude Course Direction KTS MPH feet Rate Location/Type
Thu 09:52:10 AM 39.5019 -79.8619 140° Southeast 160 184 4,800  Level Cleveland Center
Thu 09:53:09 AM 39.5164 -79.8000 73° East 135 155 5,700 857 Climbing Cleveland Center
Thu 09:54:00 AM 39.7029 -79.6601 97° East  Level Estimated
Thu 09:54:09 AM 39.5283 -79.7381 76° East 150 173 6,500  Level Cleveland Center
Thu 09:55:00 AM 39.7148 -79.6088 90° East  Level Estimated
Thu 09:55:09 AM 39.5444 -79.6733 72° East 171 197 7,200  Level Cleveland Center
Thu 09:56:00 AM 39.7267 -79.5575 123° Southeast  Level Estimated
Thu 09:56:09 AM 39.5606 -79.6111 71° East 176 203 8,000  Level Cleveland Center
Thu 09:57:10 AM 39.5664 -79.5383 84° East 186 214 8,000 50 Level Cleveland Center
Thu 09:58:09 AM 39.5719 -79.4656 84° East 192 221 8,100  Climbing Cleveland Center
Thu 09:59:19 AM 39.5706 -79.3847 91° East 196 226 8,000  Descending Washington Center
Thu 10:00:17 AM 39.5644 -79.3144 96° East 196 226 8,100  Climbing Washington Center
Thu 10:01:18 AM 39.5544 -79.2306 99° East 204 235 8,000  Descending Washington Center
Thu 10:02:18 AM 39.5483 -79.1603 96° East 204 235 8,100 51 Climbing Washington Center
Thu 10:03:16 AM 39.5422 -79.0872 96° East 204 235 8,100  Level Washington Center
Thu 10:04:17 AM 39.5339 -79.0169 99° East 199 229 8,100 -49 Level Washington Center
Thu 10:05:18 AM 39.5294 -78.9442 95° East 199 229 8,000 197 Descending Washington Center
Thu 10:06:19 AM 39.5231 -78.8792 97° East 199 229 8,500 403 Climbing Washington Center
Thu 10:07:17 AM 39.5164 -78.8169 98° East 189 217 8,800 353 Climbing Washington Center
Thu 10:08:18 AM 39.5078 -78.7522 100° East 183 211 9,200 99 Climbing Washington Center
Thu 10:09:18 AM 39.5094 -78.6822 88° East 183 211 9,000 -50 Descending Washington Center
Thu 10:10:19 AM 39.5236 -78.6183 74° East 183 211 9,100 50 Climbing Washington Center
Thu 10:11:19 AM 39.5400 -78.5489 73° East 183 211 9,100  Level Washington Center
Thu 10:12:17 AM 39.5561 -78.4850 72° East 183 211 9,100  Level Washington Center
Thu 10:13:17 AM 39.5783 -78.4214 66° East 183 211 9,100  Level Washington Center
Thu 10:14:18 AM 39.6028 -78.3603 63° Northeast 188 216 9,100  Level Washington Center
Thu 10:15:19 AM 39.6331 -78.3047 55° Northeast 188 216 9,100  Level Washington Center
Thu 10:16:17 AM 39.6675 -78.2550 48° Northeast 188 216 9,100  Level Washington Center
Thu 10:17:18 AM 39.7000 -78.2022 51° Northeast 188 216 9,100  Level Washington Center
Thu 10:18:18 AM 39.7303 -78.1519 52° Northeast 188 216 9,100  Level Washington Center
Thu 10:19:17 AM 39.7625 -78.1019 50° Northeast 188 216 9,100  Level Washington Center
Thu 10:21:31 AM 39.8364 -77.9872 50° Northeast 183 211 9,100 -31 Level New York Center
Thu 10:22:29 AM 39.8689 -77.9336 52° Northeast 183 211 9,000 -51 Descending New York Center
Thu 10:23:29 AM 39.9014 -77.8803 52° Northeast 188 216 9,000  Level New York Center
Thu 10:24:30 AM 39.9200 -77.8117 71° East 188 216 9,000  Level New York Center
Thu 10:25:31 AM 39.9364 -77.7456 72° East 188 216 9,000  Level New York Center
Thu 10:26:29 AM 39.9569 -77.6800 68° East 188 216 9,000  Level New York Center
Thu 10:27:29 AM 39.9822 -77.6064 66° East 188 216 9,000  Level New York Center
Thu 10:28:29 AM 40.0044 -77.5436 65° Northeast 193 222 9,000  Level New York Center
Thu 10:29:30 AM 40.0269 -77.4781 66° East 193 222 9,000  Level New York Center
Thu 10:30:30 AM 40.0494 -77.4150 65° Northeast 193 222 9,000  Level New York Center
Thu 10:31:31 AM 40.0719 -77.3494 66° East 187 215 9,000  Level New York Center
Thu 10:32:29 AM 40.0897 -77.2914 68° East 193 222 9,000  Level New York Center
Thu 10:33:28 AM 40.1125 -77.2175 68° East 193 222 9,000  Level New York Center
Thu 10:34:29 AM 40.1303 -77.1592 68° East 193 222 9,000  Level New York Center
Thu 10:35:30 AM 40.1508 -77.0878 69° East 193 222 9,000  Level New York Center
Thu 10:36:31 AM 40.1628 -77.0211 77° East 193 222 9,000  Level New York Center
Thu 10:37:29 AM 40.1872 -76.9525 65° Northeast 193 222 9,000  Level New York Center
Thu 10:38:30 AM 40.2114 -76.8867 64° Northeast 193 222 9,000  Level New York Center
Thu 10:39:30 AM 40.2356 -76.8236 63° Northeast 188 216 9,000  Level New York Center
Thu 10:40:31 AM 40.2597 -76.7578 64° Northeast 188 216 9,000  Level New York Center
Thu 10:41:31 AM 40.2775 -76.6911 71° East 188 216 9,000  Level New York Center
Thu 10:42:29 AM 40.2956 -76.6219 71° East 188 216 9,000  Level New York Center
Thu 10:43:30 AM 40.3178 -76.5531 67° East 193 222 9,000  Level New York Center
Thu 10:44:31 AM 40.3353 -76.4919 69° East 193 222 9,000  Level New York Center
Thu 10:45:31 AM 40.3556 -76.4172 70° East 193 222 9,000  Level New York Center
Thu 10:46:30 AM 40.3750 -76.3589 66° East 193 222 9,000  Level New York Center
Thu 10:47:28 AM 40.4017 -76.2847 65° Northeast 193 222 9,000  Level New York Center
Thu 10:48:29 AM 40.4256 -76.2156 66° East 193 222 9,000 49 Level New York Center
Thu 10:49:30 AM 40.4444 -76.1681 62° Northeast 193 222 9,100 -248 Climbing New York Center
Thu 10:50:30 AM 40.4711 -76.0856 67° East 193 222 8,500 -600 Descending New York Center
Thu 10:51:30 AM 40.4911 -76.0133 70° East 193 222 7,900 -400 Descending New York Center
Thu 10:52:30 AM 40.5064 -75.9464 73° East 207 238 7,700 -350 Descending New York Center
Thu 10:53:30 AM 40.5264 -75.8742 70° East 202 232 7,200 -347 Descending New York Center
Thu 10:54:31 AM 40.5444 -75.7936 74° East 202 232 7,000 -50 Descending New York Center
Thu 10:55:31 AM 40.5617 -75.7292 71° East 192 221 7,100 51 Climbing New York Center
Thu 10:56:29 AM 40.5769 -75.6619 73° East 187 215 7,100  Level New York Center
Thu 10:57:30 AM 40.5836 -75.5997 82° East 182 209 7,100 -50 Level New York Center
Thu 10:58:30 AM 40.6111 -75.5386 59° Northeast 182 209 7,000  Descending New York Center
Thu 10:59:31 AM 40.6406 -75.4833 55° Northeast 182 209 7,100  Climbing New York Center
Thu 11:00:29 AM 40.6700 -75.4250 56° Northeast 182 209 7,000  Descending New York Center
Thu 11:01:30 AM 40.7011 -75.3697 53° Northeast 182 209 7,100 -246 Climbing New York Center
Thu 11:02:31 AM 40.7372 -75.3036 54° Northeast 191 220 6,500 -604 Descending New York Center
Thu 11:04:00 AM 40.7821 -75.2260 53° Northeast  Level FlightAware Approximate
Thu 11:06:38 AM 40.8833 -75.0667 103° East 202 232 4,000  Level New York TRACON
Thu 11:07:38 AM 40.9167 -75.0167 49° Northeast 188 216 4,000  Level New York TRACON
Thu 11:08:38 AM 40.9167 -74.9500 90° East 182 209 4,000  Level New York TRACON
Thu 11:09:38 AM 40.9000 -74.8833 108° East 185 213 4,000 50 Level New York TRACON
Thu 11:10:38 AM 40.8833 -74.8333 114° Southeast 184 212 4,100  Climbing New York TRACON
Thu 11:11:00 AM 40.9804 -74.8495 103° East  Level FlightAware Approximate
Thu 11:11:38 AM 40.8667 -74.7667 108° East 186 214 4,000  Level New York TRACON
Thu 11:12:38 AM 40.8333 -74.7000 123° Southeast 192 221 3,700 -550 Descending New York TRACON
Thu 11:13:38 AM 40.8167 -74.6333 108° East 206 237 2,900 -368 Descending New York TRACON
Thu 11:14:32 AM 40.8000 -74.5667 108° East 185 213 3,000 53 Climbing New York TRACON
Thu 11:15:32 AM 40.7833 -74.5000 108° East 185 213 3,000  Level New York TRACON
Thu 11:16:32 AM 40.7667 -74.4500 114° Southeast 181 208 3,000 -50 Level New York TRACON
Thu 11:17:32 AM 40.7500 -74.3833 108° East 175 201 2,900 -500 Descending New York TRACON
Thu 11:18:32 AM 40.7333 -74.3167 108° East 187 215 2,000 -450 Descending New York TRACON
Thu 11:19:32 AM 40.7333 -74.2667 90° East 145 167 2,000 -250 Level New York TRACON
Thu 11:20:32 AM 40.7500 -74.2167 66° East 155 178 1,500 -250 Descending New York TRACON
Thu 11:21:32 AM 40.7667 -74.1833 57° Northeast 137 158 1,500 50 Level New York TRACON
Thu 11:22:32 AM 40.8000 -74.1333 49° Northeast 135 155 1,600 -350 Climbing New York TRACON
Thu 11:23:32 AM 40.8167 -74.1000 57° Northeast 123 142 800 -800 Descending New York TRACON
Thu 11:25:00 AM 40.8500 -74.0500 83° East  Level FlightAware Approximate
Thu 11:32:00 AM 40.8501 -74.0608 83° East  Level Estimated

Login

Don't have an account? Register now (free) for customized features, flight alerts, and more!